createdAt,value
2022-09-26T00:00:17.037Z,64.94
2022-09-26T00:02:44.964Z,64.62
2022-09-26T00:05:11.646Z,64.92
2022-09-26T00:07:38.164Z,64.55
2022-09-26T00:10:05.469Z,64.47
2022-09-26T00:12:31.973Z,64.53
2022-09-26T00:14:58.509Z,64.76
2022-09-26T00:17:25.068Z,64.59
2022-09-26T00:19:51.560Z,64.78
2022-09-26T00:22:18.033Z,64.74
2022-09-26T00:24:44.544Z,64.86
2022-09-26T00:27:11.384Z,65.16
2022-09-26T00:29:38.771Z,64.90
2022-09-26T00:32:05.286Z,65.29
2022-09-26T00:34:32.069Z,64.95
2022-09-26T00:36:58.621Z,65.18
2022-09-26T00:39:25.145Z,64.98
2022-09-26T00:41:51.727Z,65.22
2022-09-26T00:44:35.253Z,64.97
2022-09-26T00:47:02.096Z,65.34
2022-09-26T00:49:35.528Z,64.98
2022-09-26T00:52:10.249Z,65.20
2022-09-26T00:54:39.021Z,65.16
2022-09-26T00:57:12.215Z,64.78
2022-09-26T00:59:49.439Z,65.21
2022-09-26T01:02:16.736Z,64.78
2022-09-26T01:04:44.949Z,65.09
2022-09-26T01:07:18.622Z,65.25
2022-09-26T01:09:45.148Z,65.18
2022-09-26T01:12:12.193Z,65.10
2022-09-26T01:14:40.565Z,65.31
2022-09-26T01:17:07.756Z,65.15
2022-09-26T01:19:34.287Z,64.83
2022-09-26T01:22:34.314Z,64.96
2022-09-26T01:25:19.139Z,65.19
2022-09-26T01:28:15.802Z,65.08
2022-09-26T01:30:54.386Z,65.20
2022-09-26T01:33:36.250Z,65.00
2022-09-26T01:36:08.620Z,65.18
2022-09-26T01:39:15.194Z,65.09
2022-09-26T01:42:34.477Z,64.81
2022-09-26T01:45:07.904Z,64.78
2022-09-26T01:47:43.147Z,65.03
2022-09-26T01:50:16.309Z,64.51
2022-09-26T01:52:53.823Z,64.70
2022-09-26T01:55:28.519Z,64.70
2022-09-26T01:58:18.329Z,64.92
2022-09-26T02:00:47.230Z,64.96
2022-09-26T02:03:20.586Z,64.93
2022-09-26T02:05:52.553Z,65.14
2022-09-26T02:08:25.131Z,65.51
2022-09-26T02:11:02.081Z,65.26
2022-09-26T02:13:36.055Z,65.17
2022-09-26T02:16:09.312Z,65.16
2022-09-26T02:18:41.417Z,65.14
2022-09-26T02:21:21.516Z,65.23
2022-09-26T02:23:49.184Z,65.43
2022-09-26T02:26:15.796Z,65.69
2022-09-26T02:28:42.584Z,65.55
2022-09-26T02:31:09.865Z,65.29
2022-09-26T02:33:37.707Z,65.71
2022-09-26T02:36:10.195Z,65.34
2022-09-26T02:38:37.805Z,65.21
2022-09-26T02:41:29.620Z,65.33
2022-09-26T02:44:15.076Z,65.39
2022-09-26T02:46:54.580Z,65.15
2022-09-26T02:49:36.477Z,65.19
2022-09-26T02:52:29.206Z,65.46
2022-09-26T02:55:05.044Z,64.96
2022-09-26T02:57:44.944Z,65.33
2022-09-26T03:00:26.131Z,65.07
2022-09-26T03:03:03.514Z,65.28
2022-09-26T03:05:30.740Z,64.99
2022-09-26T03:08:08.867Z,64.96
2022-09-26T03:10:36.453Z,65.19
2022-09-26T03:13:13.686Z,65.19
2022-09-26T03:15:42.103Z,65.11
2022-09-26T03:18:13.391Z,64.89
2022-09-26T03:20:40.913Z,65.06
2022-09-26T03:23:07.537Z,65.13
2022-09-26T03:25:34.123Z,65.01
2022-09-26T03:28:02.314Z,65.19
2022-09-26T03:30:32.165Z,65.34
2022-09-26T03:32:58.670Z,65.37
2022-09-26T03:35:25.168Z,65.39
2022-09-26T03:37:51.701Z,65.35
2022-09-26T03:40:18.433Z,65.76
2022-09-26T03:42:46.816Z,65.50
2022-09-26T03:45:13.340Z,65.68
2022-09-26T03:47:40.043Z,65.73
2022-09-26T03:50:07.107Z,65.37
2022-09-26T03:52:33.647Z,65.64
2022-09-26T03:55:00.380Z,65.41
2022-09-26T03:57:26.924Z,65.19
2022-09-26T03:59:55.197Z,65.22
2022-09-26T04:02:22.669Z,65.55
2022-09-26T04:04:49.322Z,65.47
2022-09-26T04:07:15.874Z,65.17
2022-09-26T04:09:42.372Z,65.34
2022-09-26T04:12:08.944Z,65.36
2022-09-26T04:14:35.698Z,65.20
2022-09-26T04:17:02.182Z,64.86
2022-09-26T04:19:28.678Z,65.30
2022-09-26T04:21:55.255Z,64.94
2022-09-26T04:24:21.811Z,65.14
2022-09-26T04:26:48.454Z,64.86
2022-09-26T04:29:15.484Z,65.06
2022-09-26T04:31:42.317Z,64.84
2022-09-26T04:34:10.887Z,65.00
2022-09-26T04:36:38.194Z,65.15
2022-09-26T04:39:05.178Z,64.79
2022-09-26T04:41:32.308Z,65.16
2022-09-26T04:43:59.955Z,65.14
2022-09-26T04:46:31.018Z,64.91
2022-09-26T04:48:59.218Z,64.88
2022-09-26T04:51:27.517Z,65.25
2022-09-26T04:53:54.112Z,65.10
2022-09-26T04:56:22.323Z,65.07
2022-09-26T04:58:49.076Z,65.00
2022-09-26T05:01:20.440Z,65.02
2022-09-26T05:03:47.144Z,64.85
2022-09-26T05:06:15.439Z,64.82
2022-09-26T05:08:44.630Z,64.88
2022-09-26T05:11:11.218Z,65.10
2022-09-26T05:13:38.913Z,65.04
2022-09-26T05:16:08.852Z,64.90
2022-09-26T05:18:36.543Z,65.21
2022-09-26T05:21:03.757Z,65.36
2022-09-26T05:23:48.858Z,65.07
2022-09-26T05:26:28.007Z,64.91
2022-09-26T05:29:06.888Z,64.96
2022-09-26T05:31:37.471Z,64.96
2022-09-26T05:34:05.405Z,65.06
2022-09-26T05:36:32.001Z,64.97
2022-09-26T05:38:58.660Z,65.19
2022-09-26T05:41:29.460Z,64.70
2022-09-26T05:43:56.449Z,65.24
2022-09-26T05:46:23.305Z,65.20
2022-09-26T05:48:53.036Z,65.08
2022-09-26T05:51:21.154Z,65.19
2022-09-26T05:53:49.380Z,65.09
2022-09-26T05:56:19.718Z,65.37
2022-09-26T05:58:46.642Z,65.31
2022-09-26T06:01:15.698Z,65.20
2022-09-26T06:03:45.895Z,65.29
2022-09-26T06:06:14.809Z,65.21
2022-09-26T06:08:41.854Z,65.36
2022-09-26T06:11:14.607Z,65.05
2022-09-26T06:13:45.585Z,64.90
2022-09-26T06:16:20.928Z,64.75
2022-09-26T06:18:49.172Z,65.11
2022-09-26T06:21:17.167Z,65.10
2022-09-26T06:23:44.373Z,64.85
2022-09-26T06:26:22.843Z,64.78
2022-09-26T06:28:58.116Z,64.93
2022-09-26T06:31:25.587Z,65.04
2022-09-26T06:33:53.420Z,64.84
2022-09-26T06:36:21.868Z,64.85
2022-09-26T06:38:49.065Z,64.96
2022-09-26T06:41:16.446Z,64.79
2022-09-26T06:43:45.311Z,64.98
2022-09-26T06:46:13.076Z,64.92
2022-09-26T06:48:39.591Z,64.77
2022-09-26T06:51:06.616Z,64.86
2022-09-26T06:53:35.104Z,64.88
2022-09-26T06:56:02.099Z,64.87
2022-09-26T06:58:28.746Z,65.00
2022-09-26T07:00:56.634Z,64.84
2022-09-26T07:03:26.650Z,64.77
2022-09-26T07:05:56.902Z,64.49
2022-09-26T07:08:43.263Z,64.72
2022-09-26T07:11:32.741Z,64.37
2022-09-26T07:14:00.231Z,64.70
2022-09-26T07:16:27.199Z,64.55
2022-09-26T07:18:54.747Z,64.60
2022-09-26T07:21:21.297Z,64.13
2022-09-26T07:23:47.818Z,63.84
2022-09-26T07:26:14.340Z,63.88
2022-09-26T07:28:40.834Z,63.73
2022-09-26T07:31:07.801Z,63.44
2022-09-26T07:33:34.366Z,63.74
2022-09-26T07:36:05.276Z,63.65
2022-09-26T07:38:32.308Z,63.42
2022-09-26T07:41:00.836Z,63.41
2022-09-26T07:44:04.168Z,63.04
2022-09-26T07:46:33.294Z,63.00
2022-09-26T07:49:18.492Z,62.86
2022-09-26T07:51:46.081Z,62.59
2022-09-26T07:54:12.758Z,62.69
2022-09-26T07:56:40.384Z,62.32
2022-09-26T07:59:06.866Z,62.45
2022-09-26T08:01:33.429Z,62.07
2022-09-26T08:04:00.233Z,62.02
2022-09-26T08:06:27.686Z,62.01
2022-09-26T08:08:55.387Z,61.98
2022-09-26T08:11:22.444Z,61.97
2022-09-26T08:13:49.973Z,61.65
2022-09-26T08:16:22.999Z,61.69
2022-09-26T08:18:50.457Z,61.48
2022-09-26T08:21:17.949Z,61.47
2022-09-26T08:23:45.220Z,61.30
2022-09-26T08:26:12.137Z,61.35
2022-09-26T08:28:39.056Z,61.26
2022-09-26T08:31:06.631Z,61.09
2022-09-26T08:33:38.860Z,61.04
2022-09-26T08:36:11.098Z,60.68
2022-09-26T08:38:38.276Z,60.83
2022-09-26T08:41:32.471Z,60.65
2022-09-26T08:44:13.148Z,60.67
2022-09-26T08:47:01.317Z,60.63
2022-09-26T08:49:39.797Z,60.27
2022-09-26T08:52:24.031Z,60.47
2022-09-26T08:54:51.650Z,60.43
2022-09-26T08:57:29.626Z,60.34
2022-09-26T08:59:56.196Z,60.42
2022-09-26T09:02:45.524Z,60.50
2022-09-26T09:05:39.461Z,60.41
2022-09-26T09:08:12.968Z,60.61
2022-09-26T09:10:39.445Z,60.52
2022-09-26T09:13:05.944Z,60.52
2022-09-26T09:15:44.123Z,60.56
2022-09-26T09:18:18.787Z,60.44
2022-09-26T09:20:57.317Z,60.44
2022-09-26T09:23:31.597Z,60.69
2022-09-26T09:29:52.678Z,60.56
2022-09-26T09:32:22.331Z,60.54
2022-09-26T09:34:53.636Z,60.26
2022-09-26T09:37:26.917Z,60.40
2022-09-26T09:39:53.780Z,60.43
2022-09-26T09:42:33.317Z,60.47
2022-09-26T09:44:59.834Z,60.46
2022-09-26T09:47:29.076Z,60.51
2022-09-26T09:49:57.217Z,60.48
2022-09-26T09:52:29.791Z,60.25
2022-09-26T09:55:00.041Z,60.39
2022-09-26T09:57:42.772Z,60.27
2022-09-26T10:00:19.506Z,60.23
2022-09-26T10:03:02.279Z,60.17
2022-09-26T10:05:46.772Z,60.16
2022-09-26T10:08:17.485Z,60.33
2022-09-26T10:10:55.217Z,60.19
2022-09-26T10:13:24.052Z,60.12
2022-09-26T10:16:17.039Z,60.21
2022-09-26T10:19:02.343Z,60.06
2022-09-26T10:21:35.525Z,59.85
2022-09-26T10:24:04.856Z,59.73
2022-09-26T10:26:35.274Z,59.70
2022-09-26T10:29:08.119Z,59.47
2022-09-26T10:31:42.696Z,59.45
2022-09-26T10:34:25.641Z,59.53
2022-09-26T10:36:52.941Z,59.26
2022-09-26T10:39:48.561Z,59.37
2022-09-26T10:42:18.979Z,59.49
2022-09-26T10:44:46.368Z,59.37
2022-09-26T10:47:16.686Z,59.63
2022-09-26T10:50:03.506Z,59.54
2022-09-26T10:52:32.586Z,59.48
2022-09-26T10:55:05.027Z,59.53
2022-09-26T10:57:46.816Z,59.08
2022-09-26T11:00:24.396Z,59.41
2022-09-26T11:02:54.736Z,59.32
2022-09-26T11:05:40.138Z,59.08
2022-09-26T11:08:07.057Z,59.37
2022-09-26T11:10:34.380Z,59.21
2022-09-26T11:13:03.591Z,59.04
2022-09-26T11:15:30.168Z,59.37
2022-09-26T11:17:57.160Z,58.96
2022-09-26T11:20:41.969Z,58.99
2022-09-26T11:23:35.073Z,58.90
2022-09-26T11:26:16.342Z,58.74
2022-09-26T11:28:52.136Z,58.76
2022-09-26T11:31:27.767Z,58.73
2022-09-26T11:33:58.998Z,59.04
2022-09-26T11:36:39.629Z,58.82
2022-09-26T11:39:17.219Z,59.10
2022-09-26T11:42:06.469Z,58.73
2022-09-26T11:44:48.795Z,58.83
2022-09-26T11:47:46.552Z,58.73
2022-09-26T11:50:31.301Z,58.78
2022-09-26T11:53:28.439Z,58.74
2022-09-26T11:56:01.515Z,58.70
2022-09-26T11:58:37.581Z,58.95
2022-09-26T12:01:38.868Z,58.71
2022-09-26T12:04:45.315Z,58.75
2022-09-26T12:07:21.260Z,58.45
2022-09-26T12:10:12.305Z,58.60
2022-09-26T12:12:43.017Z,58.57
2022-09-26T12:15:33.741Z,58.61
2022-09-26T12:18:34.327Z,58.50
2022-09-26T12:21:39.124Z,58.31
2022-09-26T12:24:13.139Z,58.40
2022-09-26T12:26:58.627Z,58.37
2022-09-26T12:29:49.206Z,58.37
2022-09-26T12:32:40.131Z,58.07
2022-09-26T12:35:15.859Z,57.97
2022-09-26T12:38:18.202Z,57.80
2022-09-26T12:40:55.678Z,58.11
2022-09-26T12:43:31.852Z,58.15
2022-09-26T12:46:23.084Z,57.83
2022-09-26T12:49:17.383Z,57.86
2022-09-26T12:51:47.234Z,57.74
2022-09-26T12:54:44.196Z,57.97
2022-09-26T12:57:24.267Z,57.67
2022-09-26T12:59:58.223Z,57.79
2022-09-26T13:02:48.822Z,58.01
2022-09-26T13:05:34.301Z,57.86
2022-09-26T13:08:21.118Z,57.95
2022-09-26T13:11:06.378Z,58.18
2022-09-26T13:13:51.948Z,58.19
2022-09-26T13:16:50.581Z,58.23
2022-09-26T13:19:34.801Z,58.19
2022-09-26T13:22:04.437Z,58.46
2022-09-26T13:24:40.962Z,58.29
2022-09-26T13:27:21.159Z,58.42
2022-09-26T13:29:57.837Z,58.31
2022-09-26T13:32:35.537Z,58.33
2022-09-26T13:35:14.706Z,58.27
2022-09-26T13:38:09.394Z,58.32
2022-09-26T13:40:44.210Z,58.65
2022-09-26T13:43:25.695Z,58.25
2022-09-26T13:46:01.365Z,58.62
2022-09-26T13:48:41.580Z,58.51
2022-09-26T13:51:18.406Z,58.59
2022-09-26T13:53:54.080Z,58.28
2022-09-26T13:56:36.231Z,58.41
2022-09-26T13:59:11.804Z,58.54
2022-09-26T14:01:42.071Z,58.42
2022-09-26T14:04:34.247Z,58.59
2022-09-26T14:07:26.763Z,58.35
2022-09-26T14:09:59.285Z,58.48
2022-09-26T14:12:53.703Z,58.48
2022-09-26T14:15:28.839Z,58.60
2022-09-26T14:18:13.581Z,58.40
2022-09-26T14:20:56.186Z,58.34
2022-09-26T14:23:40.915Z,58.50
2022-09-26T14:26:21.182Z,58.48
2022-09-26T14:28:54.491Z,58.58
2022-09-26T14:31:37.087Z,58.55
2022-09-26T14:34:19.439Z,58.60
2022-09-26T14:36:46.913Z,58.76
2022-09-26T14:39:36.886Z,58.65
2022-09-26T14:42:08.526Z,58.65
2022-09-26T14:44:37.332Z,58.74
2022-09-26T14:47:06.952Z,58.69
2022-09-26T14:49:33.517Z,59.00
2022-09-26T14:52:01.610Z,59.02
2022-09-26T14:54:37.506Z,58.91
2022-09-26T14:57:07.948Z,58.98
2022-09-26T14:59:34.398Z,58.95
2022-09-26T15:02:25.832Z,59.04
2022-09-26T15:05:04.333Z,58.96
2022-09-26T15:07:39.110Z,58.93
2022-09-26T15:10:40.081Z,58.99
2022-09-26T15:13:19.433Z,59.25
2022-09-26T15:16:13.184Z,59.30
2022-09-26T15:18:50.093Z,59.19
2022-09-26T15:21:26.521Z,59.44
2022-09-26T15:23:56.172Z,59.21
2022-09-26T15:26:28.376Z,59.35
2022-09-26T15:28:57.890Z,59.30
2022-09-26T15:31:47.109Z,59.37
2022-09-26T15:34:17.928Z,59.34
2022-09-26T15:36:48.529Z,59.41
2022-09-26T15:39:31.247Z,59.54
2022-09-26T15:42:25.120Z,59.38
2022-09-26T15:45:01.664Z,59.37
2022-09-26T15:47:32.202Z,59.45
2022-09-26T15:50:14.311Z,59.61
2022-09-26T15:52:46.806Z,59.64
2022-09-26T15:55:23.834Z,59.43
2022-09-26T15:57:55.089Z,59.46
2022-09-26T16:00:24.020Z,59.50
2022-09-26T16:02:53.097Z,59.53
2022-09-26T16:05:22.872Z,59.52
2022-09-26T16:07:52.319Z,59.38
2022-09-26T16:10:30.055Z,59.54
2022-09-26T16:13:01.477Z,59.39
2022-09-26T16:15:33.674Z,59.55
2022-09-26T16:18:06.089Z,59.53
2022-09-26T16:20:33.304Z,59.47
2022-09-26T16:23:04.913Z,59.64
2022-09-26T16:25:52.386Z,59.68
2022-09-26T16:28:22.856Z,59.59
2022-09-26T16:30:58.894Z,59.67
2022-09-26T16:33:27.519Z,59.59
2022-09-26T16:35:54.830Z,59.72
2022-09-26T16:38:33.956Z,59.73
2022-09-26T16:41:09.828Z,59.92
2022-09-26T16:43:39.036Z,59.90
2022-09-26T16:46:10.133Z,59.79
2022-09-26T16:48:44.507Z,60.03
2022-09-26T16:51:25.236Z,60.03
2022-09-26T16:53:59.905Z,60.17
2022-09-26T16:56:28.538Z,60.20
2022-09-26T16:59:02.989Z,60.21
2022-09-26T17:01:50.981Z,60.30
2022-09-26T17:04:22.995Z,60.25
2022-09-26T17:06:50.379Z,60.18
2022-09-26T17:09:22.136Z,60.27
2022-09-26T17:11:53.654Z,60.41
2022-09-26T17:14:22.988Z,60.36
2022-09-26T17:16:55.138Z,60.41
2022-09-26T17:19:25.138Z,60.45
2022-09-26T17:21:54.441Z,60.56
2022-09-26T17:24:26.080Z,60.57
2022-09-26T17:26:59.305Z,60.48
2022-09-26T17:29:35.158Z,60.41
2022-09-26T17:32:09.667Z,60.86
2022-09-26T17:34:39.280Z,60.51
2022-09-26T17:37:08.038Z,60.73
2022-09-26T17:39:36.624Z,60.58
2022-09-26T17:42:03.586Z,60.62
2022-09-26T17:44:32.252Z,60.63
2022-09-26T17:47:00.164Z,60.52
2022-09-26T17:49:31.839Z,60.52
2022-09-26T17:52:02.340Z,60.63
2022-09-26T17:54:37.516Z,60.64
2022-09-26T17:57:09.781Z,60.52
2022-09-26T17:59:43.902Z,60.44
2022-09-26T18:02:32.153Z,60.52
2022-09-26T18:05:05.318Z,60.42
2022-09-26T18:07:39.123Z,60.38
2022-09-26T18:10:08.077Z,60.44
2022-09-26T18:12:37.142Z,60.47
2022-09-26T18:15:05.283Z,60.36
2022-09-26T18:17:31.892Z,60.51
2022-09-26T18:19:58.419Z,60.47
2022-09-26T18:22:33.083Z,60.37
2022-09-26T18:25:07.042Z,60.39
2022-09-26T18:27:39.658Z,60.41
2022-09-26T18:30:07.700Z,60.46
2022-09-26T18:32:36.762Z,60.48
2022-09-26T18:35:06.564Z,60.62
2022-09-26T18:37:33.829Z,60.54
2022-09-26T18:40:04.106Z,60.60
2022-09-26T18:42:32.974Z,60.74
2022-09-26T18:45:05.921Z,60.62
2022-09-26T18:47:37.401Z,60.63
2022-09-26T18:50:05.601Z,60.54
2022-09-26T18:52:33.180Z,60.73
2022-09-26T18:55:20.524Z,60.75
2022-09-26T18:58:06.842Z,60.68
2022-09-26T19:00:36.250Z,60.65
2022-09-26T19:03:06.316Z,60.63
2022-09-26T19:05:34.334Z,60.59
2022-09-26T19:08:02.730Z,60.62
2022-09-26T19:10:29.605Z,60.56
2022-09-26T19:12:56.777Z,60.88
2022-09-26T19:15:26.358Z,60.89
2022-09-26T19:17:53.674Z,61.10
2022-09-26T19:20:21.592Z,61.09
2022-09-26T19:22:52.150Z,61.24
2022-09-26T19:25:19.867Z,61.38
2022-09-26T19:27:49.703Z,61.29
2022-09-26T19:30:23.229Z,61.56
2022-09-26T19:32:53.683Z,61.49
2022-09-26T19:35:30.423Z,61.70
2022-09-26T19:37:59.802Z,61.72
2022-09-26T19:40:27.096Z,61.92
2022-09-26T19:42:55.119Z,61.74
2022-09-26T19:45:23.698Z,61.85
2022-09-26T19:47:52.542Z,61.90
2022-09-26T19:50:22.604Z,61.97
2022-09-26T19:52:52.225Z,61.80
2022-09-26T19:55:24.277Z,62.06
2022-09-26T19:57:54.611Z,62.01
2022-09-26T20:00:22.360Z,62.09
2022-09-26T20:02:51.852Z,61.87
2022-09-26T20:05:26.197Z,62.15
2022-09-26T20:07:55.731Z,62.04
2022-09-26T20:10:30.039Z,62.28
2022-09-26T20:12:57.667Z,62.40
2022-09-26T20:15:24.738Z,62.31
2022-09-26T20:17:51.500Z,62.61
2022-09-26T20:20:23.704Z,62.51
2022-09-26T20:22:51.773Z,62.55
2022-09-26T20:25:29.171Z,62.78
2022-09-26T20:27:57.564Z,63.01
2022-09-26T20:30:44.757Z,62.92
2022-09-26T20:33:13.543Z,63.06
2022-09-26T20:35:47.037Z,63.03
2022-09-26T20:38:33.731Z,63.13
2022-09-26T20:41:08.135Z,63.35
2022-09-26T20:43:41.431Z,63.28
2022-09-26T20:46:10.664Z,63.30
2022-09-26T20:48:39.289Z,63.32
2022-09-26T20:51:09.952Z,63.61
2022-09-26T20:53:37.154Z,63.57
2022-09-26T20:56:05.698Z,63.30
2022-09-26T20:58:32.470Z,63.29
2022-09-26T21:01:00.668Z,63.40
2022-09-26T21:03:28.285Z,63.63
2022-09-26T21:05:55.405Z,63.14
2022-09-26T21:08:27.646Z,63.57
2022-09-26T21:10:58.139Z,63.36
2022-09-26T21:13:25.232Z,63.51
2022-09-26T21:15:54.697Z,63.46
2022-09-26T21:18:28.715Z,63.63
2022-09-26T21:20:59.987Z,63.67
2022-09-26T21:23:26.731Z,63.74
2022-09-26T21:25:53.826Z,64.09
2022-09-26T21:28:28.209Z,63.74
2022-09-26T21:31:00.780Z,63.94
2022-09-26T21:33:28.130Z,64.10
2022-09-26T21:35:55.098Z,63.91
2022-09-26T21:38:24.495Z,63.97
2022-09-26T21:40:54.470Z,64.20
2022-09-26T21:43:25.225Z,64.14
2022-09-26T21:45:52.964Z,64.30
2022-09-26T21:48:21.774Z,64.27
2022-09-26T21:50:58.092Z,64.02
2022-09-26T21:53:39.049Z,64.33
2022-09-26T21:56:12.443Z,64.23
2022-09-26T21:58:40.293Z,64.25
2022-09-26T22:01:10.113Z,63.95
2022-09-26T22:03:38.508Z,64.18
2022-09-26T22:06:07.484Z,64.11
2022-09-26T22:08:34.232Z,64.33
2022-09-26T22:11:04.316Z,64.18
2022-09-26T22:13:34.918Z,64.38
2022-09-26T22:16:12.079Z,64.53
2022-09-26T22:18:40.127Z,64.56
2022-09-26T22:21:08.494Z,64.27
2022-09-26T22:23:35.982Z,64.49
2022-09-26T22:26:03.510Z,64.63
2022-09-26T22:28:30.199Z,64.78
2022-09-26T22:31:01.189Z,64.63
2022-09-26T22:33:27.897Z,64.62
2022-09-26T22:35:54.461Z,64.71
2022-09-26T22:38:20.967Z,64.56
2022-09-26T22:40:59.012Z,64.91
2022-09-26T22:43:26.420Z,64.72
2022-09-26T22:45:53.163Z,64.96
2022-09-26T22:48:19.827Z,64.77
2022-09-26T22:50:46.492Z,64.99
2022-09-26T22:53:13.003Z,64.79
2022-09-26T22:55:39.664Z,64.92
2022-09-26T22:58:06.169Z,65.11
2022-09-26T23:00:32.644Z,64.71
2022-09-26T23:02:59.176Z,65.16
2022-09-26T23:05:25.700Z,65.36
2022-09-26T23:07:55.203Z,65.12
2022-09-26T23:10:22.311Z,65.36
2022-09-26T23:12:50.626Z,65.00
2022-09-26T23:15:18.332Z,65.08
2022-09-26T23:17:44.869Z,65.08
2022-09-26T23:20:11.569Z,65.49
2022-09-26T23:22:39.739Z,65.55
2022-09-26T23:25:07.210Z,65.57
2022-09-26T23:27:33.853Z,65.30
2022-09-26T23:30:00.358Z,65.27
2022-09-26T23:32:26.991Z,65.45
2022-09-26T23:34:53.484Z,65.64
2022-09-26T23:37:20.009Z,65.40
2022-09-26T23:39:46.659Z,65.51
2022-09-26T23:42:13.472Z,65.70
2022-09-26T23:44:40.013Z,65.42
2022-09-26T23:47:06.528Z,65.34
2022-09-26T23:49:33.073Z,65.58
2022-09-26T23:51:59.718Z,65.77
2022-09-26T23:54:26.257Z,65.69
2022-09-26T23:56:52.781Z,65.42
2022-09-26T23:59:19.313Z,65.65
